Time;durP1;ratioP1;P1;durP2;ratioP2;P2;SDS_P1;SDS_P2;PMS_P1;PMS_P2;Temp;Humidity;BMP_temperature;BMP_pressure;BME280_temperature;BME280_humidity;BME280_pressure;Samples;Min_cycle;Max_cycle;Signal;HPM_P1;HPM_P2
2021/12/24 00:02:11;;;;;;;2.97;1.38;;;2.80;99.90;;;;;;21070707;28;20093;-51
2021/12/24 00:12:18;;;;;;;2.38;0.82;;;2.50;99.90;;;;;;21068843;28;20395;-50
2021/12/24 00:22:55;;;;;;;2.08;0.93;;;3.20;99.90;;;;;;21069691;28;20074;-53
2021/12/24 00:43:08;;;;;;;;;;;3.20;99.90;;;;;;21068625;28;20093;-54
2021/12/24 01:03:33;;;;;;;2.45;1.02;;;3.50;99.90;;;;;;21051166;28;20449;-51
2021/12/24 01:13:36;;;;;;;1.80;0.93;;;3.70;99.90;;;;;;21066151;28;20097;-50
2021/12/24 01:23:48;;;;;;;3.60;1.10;;;3.60;99.90;;;;;;21065629;28;20028;-51
2021/12/24 01:44:33;;;;;;;2.67;1.20;;;3.90;99.90;;;;;;20873614;28;20198;-50
2021/12/24 01:54:42;;;;;;;1.73;0.80;;;3.60;99.90;;;;;;20873657;28;20099;-54
2021/12/24 02:04:45;;;;;;;1.58;0.88;;;3.50;99.90;;;;;;20872612;28;20210;-49
2021/12/24 02:14:51;;;;;;;3.30;1.40;;;3.80;99.90;;;;;;20962306;28;20537;-51
2021/12/24 02:35:18;;;;;;;;;;;4.20;99.90;;;;;;21071492;28;20102;-50
2021/12/24 02:45:23;;;;;;;1.50;0.60;;;4.30;99.90;;;;;;21077842;28;19916;-51
2021/12/24 02:55:26;;;;;;;1.58;1.33;;;4.30;99.90;;;;;;21076727;28;20036;-51
2021/12/24 03:05:28;;;;;;;1.80;0.90;;;4.40;99.90;;;;;;21075778;28;20039;-50
2021/12/24 03:15:31;;;;;;;2.05;1.15;;;4.60;99.90;;;;;;21058647;28;20143;-51
2021/12/24 03:25:35;;;;;;;2.40;0.80;;;4.70;99.90;;;;;;21074259;28;20395;-50
2021/12/24 03:35:37;;;;;;;1.33;0.98;;;4.80;99.90;;;;;;21056732;28;20112;-50
2021/12/24 03:45:49;;;;;;;1.70;0.63;;;4.80;99.90;;;;;;21072598;28;20081;-51
2021/12/24 03:55:52;;;;;;;2.10;0.70;;;4.70;99.90;;;;;;21071691;28;20383;-50
2021/12/24 04:05:54;;;;;;;1.10;0.60;;;4.80;99.90;;;;;;21054379;28;20040;-50
2021/12/24 04:16:15;;;;;;;;;;;4.90;99.90;;;;;;21070979;28;20075;-50
2021/12/24 04:26:39;;;;;;;2.20;0.90;;;4.70;99.90;;;;;;21053426;28;19957;-50
2021/12/24 05:28:51;;;;;;;2.05;1.00;;;4.90;99.90;;;;;;20684552;28;20045;-49
2021/12/24 05:38:54;;;;;;;1.70;0.70;;;4.90;99.90;;;;;;20726600;28;20482;-52
2021/12/24 05:48:57;;;;;;;1.90;0.93;;;5.00;99.90;;;;;;20693851;28;20118;-52
2021/12/24 05:59:04;;;;;;;0.77;0.57;;;5.00;99.90;;;;;;20798944;28;20553;-51
2021/12/24 06:09:07;;;;;;;2.33;0.60;;;5.10;99.90;;;;;;20970312;28;20064;-51
2021/12/24 06:19:09;;;;;;;4.35;0.88;;;4.90;99.90;;;;;;21057670;28;20036;-50
2021/12/24 06:29:12;;;;;;;1.17;0.60;;;5.00;99.90;;;;;;21079794;28;20047;-50
2021/12/24 06:39:15;;;;;;;0.75;0.28;;;4.80;99.90;;;;;;21080382;28;20109;-52
2021/12/24 06:49:19;;;;;;;0.57;0.38;;;5.20;99.90;;;;;;21077325;28;20089;-50
2021/12/24 06:59:21;;;;;;;1.75;0.30;;;5.20;99.90;;;;;;21076609;28;20058;-55
2021/12/24 07:09:25;;;;;;;0.88;0.40;;;5.40;99.90;;;;;;21059382;28;20048;-52
2021/12/24 07:19:28;;;;;;;1.55;0.60;;;5.20;99.90;;;;;;21074760;28;20086;-49
2021/12/24 07:29:31;;;;;;;1.02;0.43;;;5.20;99.90;;;;;;21074034;28;20032;-50
2021/12/24 07:39:33;;;;;;;0.57;0.30;;;5.40;99.90;;;;;;21073668;28;20036;-50
2021/12/24 07:49:41;;;;;;;0.30;0.20;;;5.50;99.90;;;;;;21072733;28;20040;-49
2021/12/24 07:59:45;;;;;;;0.93;0.43;;;5.60;99.90;;;;;;21071878;28;20039;-50
2021/12/24 08:09:52;;;;;;;1.13;0.32;;;5.50;99.90;;;;;;21070483;28;20295;-51
2021/12/24 08:19:54;;;;;;;0.68;0.10;;;5.60;99.90;;;;;;21052921;28;20487;-51
2021/12/24 08:29:57;;;;;;;0.40;0.13;;;5.70;99.90;;;;;;21069591;28;20057;-52
2021/12/24 08:40:00;;;;;;;0.40;0.22;;;5.70;99.90;;;;;;21068923;28;20483;-53
2021/12/24 08:50:04;;;;;;;0.20;0.20;;;5.70;99.90;;;;;;21067983;28;20119;-51
2021/12/24 09:00:12;;;;;;;0.10;0.10;;;5.90;99.90;;;;;;21067320;28;20050;-50
2021/12/24 09:10:15;;;;;;;0.00;0.00;;;6.10;99.90;;;;;;21066340;28;20449;-52
2021/12/24 09:20:24;;;;;;;0.17;0.00;;;6.30;99.90;;;;;;21066220;28;20035;-55
2021/12/24 09:30:29;;;;;;;0.03;0.00;;;6.50;99.90;;;;;;21065757;28;20089;-50
2021/12/24 09:40:33;;;;;;;0.10;0.00;;;6.60;99.90;;;;;;21068030;28;20115;-50
2021/12/24 09:50:37;;;;;;;0.28;0.00;;;6.80;99.90;;;;;;21081753;28;20043;-50
2021/12/24 10:00:41;;;;;;;4.68;1.73;;;6.80;99.90;;;;;;21081224;28;20093;-53
2021/12/24 10:10:45;;;;;;;4.95;2.40;;;6.90;99.90;;;;;;21080488;28;20364;-49
2021/12/24 10:20:59;;;;;;;0.98;0.30;;;4.60;99.90;;;;;;21062572;28;20028;-50
2021/12/24 10:31:01;;;;;;;6.78;3.08;;;5.00;99.90;;;;;;21079016;28;20032;-50
2021/12/24 10:41:07;;;;;;;7.15;4.10;;;6.10;99.90;;;;;;21080030;28;20100;-50
2021/12/24 10:51:21;;;;;;;0.75;0.60;;;4.30;99.90;;;;;;20983864;28;20052;-49
2021/12/24 11:01:24;;;;;;;5.97;3.05;;;3.80;99.90;;;;;;20984250;28;20032;-49
2021/12/24 11:11:38;;;;;;;1.50;0.80;;;4.10;99.90;;;;;;20982719;28;20126;-51
2021/12/24 11:21:40;;;;;;;0.70;0.30;;;4.90;99.90;;;;;;20949042;28;20086;-50
2021/12/24 11:31:45;;;;;;;1.17;0.20;;;5.40;99.90;;;;;;21033409;28;20052;-48
2021/12/24 11:41:48;;;;;;;1.20;0.40;;;5.70;99.90;;;;;;21074660;28;20058;-54
2021/12/24 11:51:52;;;;;;;0.10;0.10;;;6.00;99.90;;;;;;21072251;28;20032;-48
2021/12/24 12:01:54;;;;;;;0.45;0.10;;;6.20;99.90;;;;;;21071632;28;20435;-50
2021/12/24 12:12:02;;;;;;;0.10;0.10;;;6.30;99.90;;;;;;21070476;28;20043;-48
2021/12/24 12:32:44;;;;;;;1.00;0.40;;;5.80;99.90;;;;;;21069025;28;20036;-53
2021/12/24 12:42:53;;;;;;;1.40;0.40;;;5.60;99.90;;;;;;21051405;28;20036;-48
2021/12/24 12:53:25;;;;;;;0.73;0.30;;;5.60;99.90;;;;;;21069306;28;20101;-49
2021/12/24 13:03:28;;;;;;;1.27;0.40;;;5.80;99.90;;;;;;20809300;28;20041;-49
2021/12/24 13:13:41;;;;;;;0.47;0.30;;;6.00;99.90;;;;;;20792045;28;20072;-49
2021/12/24 13:23:47;;;;;;;0.55;0.30;;;6.00;99.90;;;;;;20791515;28;20046;-54
2021/12/24 13:33:50;;;;;;;1.20;0.30;;;6.10;99.90;;;;;;20849103;28;20048;-49
2021/12/24 13:43:53;;;;;;;2.05;0.35;;;6.30;99.90;;;;;;21065116;28;20044;-50
2021/12/24 14:04:20;;;;;;;1.38;0.38;;;5.90;99.90;;;;;;21064553;28;20553;-50
2021/12/24 14:14:38;;;;;;;0.73;0.20;;;5.70;99.90;;;;;;21064945;28;20093;-50
2021/12/24 14:25:00;;;;;;;1.67;0.20;;;6.00;99.90;;;;;;21064431;28;20032;-50
2021/12/24 14:35:26;;;;;;;1.65;0.43;;;6.00;99.90;;;;;;21077193;28;20484;-50
2021/12/24 14:45:40;;;;;;;0.63;0.25;;;5.80;99.90;;;;;;21077981;28;20036;-49
2021/12/24 14:55:47;;;;;;;0.75;0.30;;;5.80;99.90;;;;;;21078182;28;20113;-50
2021/12/24 15:05:50;;;;;;;1.02;0.30;;;5.70;99.90;;;;;;21076048;28;20414;-51
2021/12/24 15:15:57;;;;;;;1.27;0.47;;;5.60;99.90;;;;;;21075212;28;20044;-49
2021/12/24 15:26:00;;;;;;;1.15;0.40;;;5.60;99.90;;;;;;21074606;28;20404;-49
2021/12/24 15:36:03;;;;;;;1.38;0.40;;;5.70;99.90;;;;;;21074899;28;20491;-50
2021/12/24 15:46:06;;;;;;;1.10;0.50;;;5.50;99.90;;;;;;21073067;28;20036;-49
2021/12/24 15:56:09;;;;;;;0.55;0.30;;;5.50;99.90;;;;;;21072572;28;20437;-48
2021/12/24 16:06:12;;;;;;;0.77;0.40;;;5.50;99.90;;;;;;21071379;28;20097;-54
2021/12/24 16:16:22;;;;;;;1.02;0.50;;;5.40;99.90;;;;;;21070000;28;20048;-49
2021/12/24 16:26:24;;;;;;;0.73;0.45;;;5.50;99.90;;;;;;21069446;28;20040;-49
2021/12/24 16:36:27;;;;;;;1.48;0.60;;;5.70;99.90;;;;;;21069217;28;20036;-50
2021/12/24 16:46:30;;;;;;;1.15;0.60;;;5.70;99.90;;;;;;21068326;28;20062;-50
2021/12/24 16:56:32;;;;;;;1.60;0.70;;;5.60;99.90;;;;;;21066874;28;20032;-51
2021/12/24 17:06:35;;;;;;;1.70;0.70;;;5.70;99.90;;;;;;21066892;28;20044;-50
2021/12/24 17:16:39;;;;;;;1.67;0.52;;;5.50;99.90;;;;;;21066125;28;20093;-51
2021/12/24 17:26:45;;;;;;;1.00;0.60;;;5.50;99.90;;;;;;21065837;28;20171;-50
2021/12/24 17:36:48;;;;;;;1.77;0.57;;;5.50;99.90;;;;;;21065780;28;20094;-51
2021/12/24 17:46:51;;;;;;;2.03;0.32;;;5.60;99.90;;;;;;21065029;28;20036;-52
2021/12/24 17:56:53;;;;;;;1.27;0.50;;;5.60;99.90;;;;;;21064772;28;20085;-49
2021/12/24 18:06:57;;;;;;;1.35;0.50;;;5.70;99.90;;;;;;21076566;28;20048;-51
2021/12/24 18:17:00;;;;;;;1.30;0.60;;;5.70;99.90;;;;;;21080081;28;20060;-51
2021/12/24 18:27:05;;;;;;;0.98;0.60;;;5.90;99.90;;;;;;21079138;28;20494;-51
2021/12/24 18:37:09;;;;;;;2.08;0.60;;;5.70;99.90;;;;;;21078466;28;20093;-50
2021/12/24 18:47:14;;;;;;;1.38;0.40;;;5.80;99.90;;;;;;21044510;28;20040;-51
2021/12/24 18:57:16;;;;;;;2.67;0.52;;;5.70;99.90;;;;;;21077665;28;20044;-50
2021/12/24 19:07:19;;;;;;;1.13;0.50;;;5.70;99.90;;;;;;21076217;28;20056;-49
2021/12/24 19:17:21;;;;;;;1.55;0.63;;;5.70;99.90;;;;;;21074560;28;20028;-48
2021/12/24 19:27:24;;;;;;;3.20;0.38;;;5.80;99.90;;;;;;21075457;28;20040;-51
2021/12/24 19:37:27;;;;;;;0.93;0.30;;;5.80;99.90;;;;;;21073347;28;20036;-51
2021/12/24 19:47:29;;;;;;;1.63;0.50;;;5.90;99.90;;;;;;21072624;28;20040;-49
2021/12/24 19:57:32;;;;;;;0.60;0.30;;;5.90;99.90;;;;;;21072169;28;20040;-52
2021/12/24 20:07:34;;;;;;;3.60;0.57;;;5.80;99.90;;;;;;21070155;28;20048;-52
2021/12/24 20:17:37;;;;;;;1.20;0.50;;;5.80;99.90;;;;;;21070751;28;20483;-51
2021/12/24 20:27:42;;;;;;;0.95;0.40;;;5.70;99.90;;;;;;21069007;28;20031;-53
2021/12/24 20:37:46;;;;;;;0.50;0.28;;;5.80;99.90;;;;;;21068418;28;20094;-50
2021/12/24 20:47:49;;;;;;;1.48;0.45;;;5.80;99.90;;;;;;21069850;28;20387;-51
2021/12/24 20:57:54;;;;;;;0.35;0.20;;;5.80;99.90;;;;;;21067119;28;20078;-51
2021/12/24 21:07:56;;;;;;;1.70;0.45;;;5.80;99.90;;;;;;21065842;28;20052;-52
2021/12/24 21:17:59;;;;;;;1.20;0.80;;;5.70;99.90;;;;;;21066390;28;20039;-50
2021/12/24 21:28:03;;;;;;;1.17;0.40;;;5.50;99.90;;;;;;21065319;28;20109;-51
2021/12/24 21:38:08;;;;;;;0.95;0.50;;;5.50;99.90;;;;;;21070356;28;20052;-49
2021/12/24 21:48:12;;;;;;;0.70;0.30;;;5.70;99.90;;;;;;21081836;28;20097;-51
2021/12/24 21:58:16;;;;;;;2.50;0.43;;;5.70;99.90;;;;;;21081137;28;20065;-50
2021/12/24 22:08:26;;;;;;;1.45;0.30;;;5.80;99.90;;;;;;21080323;28;20044;-49
2021/12/24 22:18:34;;;;;;;0.63;0.38;;;5.70;99.90;;;;;;21079480;28;20035;-51
2021/12/24 22:28:36;;;;;;;0.70;0.40;;;5.70;99.90;;;;;;21078830;28;20101;-50
2021/12/24 22:38:39;;;;;;;1.42;0.40;;;5.80;99.90;;;;;;21078271;28;20105;-53
2021/12/24 22:48:42;;;;;;;0.38;0.20;;;5.80;99.90;;;;;;21077500;28;20105;-50
2021/12/24 22:58:45;;;;;;;1.15;0.20;;;5.60;99.90;;;;;;21076126;28;20036;-49
2021/12/24 23:08:48;;;;;;;0.40;0.10;;;5.30;99.90;;;;;;21075597;28;20058;-49
2021/12/24 23:19:00;;;;;;;1.75;0.20;;;5.60;99.90;;;;;;21058184;28;20384;-50
2021/12/24 23:29:03;;;;;;;0.45;0.20;;;5.60;99.90;;;;;;21074990;28;20407;-50
2021/12/24 23:39:05;;;;;;;1.85;0.10;;;5.50;99.90;;;;;;21073382;28;20097;-53
2021/12/24 23:49:10;;;;;;;0.57;0.20;;;5.30;99.90;;;;;;21072245;28;20113;-50
2021/12/24 23:59:12;;;;;;;0.20;0.10;;;5.30;99.90;;;;;;21071985;28;20040;-49
